Terminal Aerodrome Forecast
Issued by NWS Jackson, MS

Home | Current Version | Previous Version | Text Only | Print | Product List | Glossary On
Versions: 1 2 3 4 5 6 7 8 9 10 11 12 13
000
FTUS44 KJAN 211130
TAFJAN
TAF
KJAN 211130Z 2112/2212 34007KT 6SM -SHRA BKN050 BKN130
     FM211500 13005KT P6SM FEW050 SCT250
     FM220300 18011G20KT 5SM SHRA VCTS BKN025CB BKN250
     FM220600 22010G18KT 6SM SHRA BR VCTS BKN003CB BKN250=

USA.gov is the U.S. government's official web portal to all federal, state and local government web resources and services.